createdAt,value
2023-05-09T00:00:25.936Z,655.00
2023-05-09T00:01:25.991Z,652.00
2023-05-09T00:02:26.155Z,653.00
2023-05-09T00:03:26.122Z,650.00
2023-05-09T00:04:26.209Z,648.00
2023-05-09T00:05:26.461Z,648.00
2023-05-09T00:06:26.288Z,652.00
2023-05-09T00:07:26.323Z,651.00
2023-05-09T00:08:26.416Z,649.00
2023-05-09T00:09:26.465Z,652.00
2023-05-09T00:10:26.532Z,648.00
2023-05-09T00:11:26.588Z,648.00
2023-05-09T00:12:26.677Z,648.00
2023-05-09T00:13:26.765Z,647.00
2023-05-09T00:14:26.714Z,647.00
2023-05-09T00:15:26.721Z,647.00
2023-05-09T00:16:26.772Z,644.00
2023-05-09T00:17:26.830Z,643.00
2023-05-09T00:18:26.775Z,642.00
2023-05-09T00:19:26.780Z,646.00
2023-05-09T00:20:26.818Z,648.00
2023-05-09T00:21:26.884Z,644.00
2023-05-09T00:22:26.827Z,640.00
2023-05-09T00:23:26.829Z,650.00
2023-05-09T00:24:26.856Z,644.00
2023-05-09T00:25:26.848Z,642.00
2023-05-09T00:26:26.904Z,640.00
2023-05-09T00:27:26.906Z,643.00
2023-05-09T00:28:26.907Z,641.00
2023-05-09T00:29:26.923Z,637.00
2023-05-09T00:30:26.977Z,637.00
2023-05-09T00:31:27.000Z,636.00
2023-05-09T00:32:26.998Z,640.00
2023-05-09T00:33:27.052Z,632.00
2023-05-09T00:34:27.033Z,637.00
2023-05-09T00:35:27.052Z,639.00
2023-05-09T00:36:27.094Z,636.00
2023-05-09T00:37:27.169Z,637.00
2023-05-09T00:38:27.082Z,638.00
2023-05-09T00:39:27.093Z,633.00
2023-05-09T00:40:27.145Z,636.00
2023-05-09T00:41:27.117Z,633.00
2023-05-09T00:42:27.150Z,632.00
2023-05-09T00:43:27.144Z,634.00
2023-05-09T00:44:27.165Z,631.00
2023-05-09T00:45:27.247Z,631.00
2023-05-09T00:46:27.288Z,633.00
2023-05-09T00:47:27.356Z,625.00
2023-05-09T00:48:27.431Z,626.00
2023-05-09T00:49:27.444Z,636.00
2023-05-09T00:50:27.428Z,624.00
2023-05-09T00:51:27.469Z,629.00
2023-05-09T00:52:27.471Z,627.00
2023-05-09T00:53:27.594Z,632.00
2023-05-09T00:54:27.508Z,626.00
2023-05-09T00:55:27.489Z,629.00
2023-05-09T00:56:27.520Z,627.00
2023-05-09T00:57:27.547Z,621.00
2023-05-09T00:58:27.581Z,627.00
2023-05-09T00:59:27.555Z,626.00
2023-05-09T01:00:27.573Z,625.00
2023-05-09T01:01:27.620Z,622.00
2023-05-09T01:02:27.668Z,623.00
2023-05-09T01:03:27.693Z,621.00
2023-05-09T01:04:27.610Z,622.00
2023-05-09T01:05:27.662Z,616.00
2023-05-09T01:06:27.634Z,622.00
2023-05-09T01:07:27.656Z,616.00
2023-05-09T01:08:27.661Z,617.00
2023-05-09T01:09:27.777Z,617.00
2023-05-09T01:10:27.705Z,618.00
2023-05-09T01:11:27.732Z,614.00
2023-05-09T01:12:27.706Z,615.00
2023-05-09T01:13:27.794Z,618.00
2023-05-09T01:14:27.760Z,617.00
2023-05-09T01:15:27.799Z,618.00
2023-05-09T01:16:27.986Z,618.00
2023-05-09T01:17:27.965Z,614.00
2023-05-09T01:18:27.987Z,614.00
2023-05-09T01:19:28.013Z,610.00
2023-05-09T01:20:28.062Z,610.00
2023-05-09T01:21:28.149Z,611.00
2023-05-09T01:22:28.202Z,613.00
2023-05-09T01:23:28.190Z,613.00
2023-05-09T01:24:28.202Z,608.00
2023-05-09T01:25:28.340Z,607.00
2023-05-09T01:26:28.240Z,611.00
2023-05-09T01:27:28.231Z,605.00
2023-05-09T01:28:28.252Z,605.00
2023-05-09T01:29:28.275Z,603.00
2023-05-09T01:30:28.255Z,609.00
2023-05-09T01:31:28.309Z,607.00
2023-05-09T01:32:28.349Z,605.00
2023-05-09T01:33:28.315Z,603.00
2023-05-09T01:34:28.337Z,602.00
2023-05-09T01:35:28.350Z,597.00
2023-05-09T01:36:28.364Z,607.00
2023-05-09T01:37:28.337Z,603.00
2023-05-09T01:38:28.367Z,603.00
2023-05-09T01:39:28.403Z,602.00
2023-05-09T01:40:28.457Z,605.00
2023-05-09T01:41:28.592Z,605.00
2023-05-09T01:42:28.535Z,605.00
2023-05-09T01:43:28.590Z,604.00
2023-05-09T01:44:28.557Z,600.00
2023-05-09T01:45:28.567Z,601.00
2023-05-09T01:46:28.747Z,597.00
2023-05-09T01:47:28.646Z,600.00
2023-05-09T01:48:28.650Z,599.00
2023-05-09T01:49:28.651Z,596.00
2023-05-09T01:50:28.686Z,598.00
2023-05-09T01:51:28.666Z,594.00
2023-05-09T01:52:28.717Z,597.00
2023-05-09T01:53:28.747Z,598.00
2023-05-09T01:54:28.741Z,600.00
2023-05-09T01:55:28.776Z,599.00
2023-05-09T01:56:28.800Z,597.00
2023-05-09T01:57:28.914Z,596.00
2023-05-09T01:58:28.890Z,597.00
2023-05-09T01:59:28.846Z,596.00
2023-05-09T02:00:28.928Z,594.00
2023-05-09T02:01:28.887Z,589.00
2023-05-09T02:02:29.044Z,591.00
2023-05-09T02:03:28.994Z,591.00
2023-05-09T02:04:28.965Z,595.00
2023-05-09T02:05:28.960Z,584.00
2023-05-09T02:06:28.989Z,589.00
2023-05-09T02:07:28.998Z,590.00
2023-05-09T02:08:29.041Z,591.00
2023-05-09T02:09:29.064Z,587.00
2023-05-09T02:10:29.081Z,586.00
2023-05-09T02:11:29.104Z,585.00
2023-05-09T02:12:29.101Z,582.00
2023-05-09T02:13:29.243Z,586.00
2023-05-09T02:14:29.149Z,588.00
2023-05-09T02:15:29.168Z,583.00
2023-05-09T02:16:29.235Z,582.00
2023-05-09T02:17:29.218Z,584.00
2023-05-09T02:18:29.211Z,582.00
2023-05-09T02:19:29.249Z,587.00
2023-05-09T02:20:29.276Z,586.00
2023-05-09T02:21:29.376Z,585.00
2023-05-09T02:22:29.336Z,583.00
2023-05-09T02:23:29.347Z,581.00
2023-05-09T02:24:29.349Z,585.00
2023-05-09T02:25:29.380Z,584.00
2023-05-09T02:26:29.398Z,582.00
2023-05-09T02:27:29.497Z,579.00
2023-05-09T02:28:29.579Z,580.00
2023-05-09T02:29:29.550Z,578.00
2023-05-09T02:30:29.504Z,576.00
2023-05-09T02:31:29.603Z,582.00
2023-05-09T02:32:29.561Z,574.00
2023-05-09T02:33:29.554Z,572.00
2023-05-09T02:34:29.587Z,577.00
2023-05-09T02:35:29.570Z,575.00
2023-05-09T02:36:29.584Z,579.00
2023-05-09T02:37:29.575Z,578.00
2023-05-09T02:38:29.625Z,580.00
2023-05-09T02:39:29.633Z,577.00
2023-05-09T02:40:29.650Z,578.00
2023-05-09T02:41:29.654Z,576.00
2023-05-09T02:42:29.676Z,572.00
2023-05-09T02:43:29.677Z,577.00
2023-05-09T02:44:29.713Z,578.00
2023-05-09T02:45:29.829Z,574.00
2023-05-09T02:46:29.838Z,566.00
2023-05-09T02:47:29.867Z,576.00
2023-05-09T02:48:29.926Z,571.00
2023-05-09T02:49:32.398Z,572.00
2023-05-09T02:50:29.996Z,576.00
2023-05-09T02:51:29.950Z,575.00
2023-05-09T02:52:30.628Z,578.00
2023-05-09T02:53:29.953Z,577.00
2023-05-09T02:54:29.992Z,577.00
2023-05-09T02:55:29.962Z,569.00
2023-05-09T02:56:29.956Z,565.00
2023-05-09T02:57:29.947Z,565.00
2023-05-09T02:58:29.917Z,566.00
2023-05-09T02:59:29.910Z,564.00
2023-05-09T03:00:29.912Z,568.00
2023-05-09T03:01:30.038Z,567.00
2023-05-09T03:02:29.911Z,559.00
2023-05-09T03:03:29.935Z,568.00
2023-05-09T03:04:29.911Z,565.00
2023-05-09T03:05:29.901Z,565.00
2023-05-09T03:06:29.884Z,565.00
2023-05-09T03:07:29.897Z,565.00
2023-05-09T03:08:29.861Z,561.00
2023-05-09T03:09:29.846Z,560.00
2023-05-09T03:10:29.865Z,558.00
2023-05-09T03:11:29.822Z,558.00
2023-05-09T03:12:29.837Z,560.00
2023-05-09T03:13:29.821Z,564.00
2023-05-09T03:14:29.804Z,561.00
2023-05-09T03:15:29.824Z,560.00
2023-05-09T03:16:30.052Z,562.00
2023-05-09T03:17:29.940Z,558.00
2023-05-09T03:18:29.794Z,557.00
2023-05-09T03:19:29.785Z,562.00
2023-05-09T03:20:29.787Z,558.00
2023-05-09T03:21:29.752Z,561.00
2023-05-09T03:22:29.759Z,565.00
2023-05-09T03:23:29.755Z,563.00
2023-05-09T03:24:29.824Z,560.00
2023-05-09T03:25:29.875Z,564.00
2023-05-09T03:26:29.940Z,562.00
2023-05-09T03:27:30.033Z,552.00
2023-05-09T03:28:30.080Z,551.00
2023-05-09T03:29:30.104Z,552.00
2023-05-09T03:30:30.227Z,550.00
2023-05-09T03:31:30.293Z,552.00
2023-05-09T03:32:30.356Z,557.00
2023-05-09T03:33:30.482Z,555.00
2023-05-09T03:34:30.463Z,552.00
2023-05-09T03:35:30.505Z,549.00
2023-05-09T03:36:30.571Z,551.00
2023-05-09T03:37:30.641Z,553.00
2023-05-09T03:38:30.675Z,552.00
2023-05-09T03:39:30.644Z,553.00
2023-05-09T03:40:30.671Z,556.00
2023-05-09T03:41:30.680Z,552.00
2023-05-09T03:42:30.708Z,554.00
2023-05-09T03:43:30.765Z,551.00
2023-05-09T03:44:30.827Z,555.00
2023-05-09T03:45:30.903Z,551.00
2023-05-09T03:46:31.024Z,554.00
2023-05-09T03:47:31.029Z,557.00
2023-05-09T03:48:31.100Z,551.00
2023-05-09T03:49:31.260Z,548.00
2023-05-09T03:50:31.270Z,554.00
2023-05-09T03:51:31.268Z,553.00
2023-05-09T03:52:31.340Z,547.00
2023-05-09T03:53:31.403Z,547.00
2023-05-09T03:54:31.484Z,545.00
2023-05-09T03:55:31.551Z,546.00
2023-05-09T03:56:31.580Z,548.00
2023-05-09T03:57:31.643Z,550.00
2023-05-09T03:58:31.664Z,544.00
2023-05-09T03:59:31.731Z,548.00
2023-05-09T04:00:31.822Z,548.00
2023-05-09T04:01:31.851Z,550.00
2023-05-09T04:02:32.026Z,543.00
2023-05-09T04:03:32.009Z,546.00
2023-05-09T04:04:31.995Z,540.00
2023-05-09T04:05:32.160Z,548.00
2023-05-09T04:06:32.104Z,542.00
2023-05-09T04:07:32.185Z,541.00
2023-05-09T04:08:32.212Z,544.00
2023-05-09T04:09:32.291Z,540.00
2023-05-09T04:10:32.376Z,537.00
2023-05-09T04:11:32.402Z,538.00
2023-05-09T04:12:32.432Z,542.00
2023-05-09T04:13:32.505Z,539.00
2023-05-09T04:14:32.584Z,541.00
2023-05-09T04:15:32.643Z,542.00
2023-05-09T04:16:32.666Z,544.00
2023-05-09T04:17:32.700Z,537.00
2023-05-09T04:18:32.694Z,543.00
2023-05-09T04:19:32.703Z,544.00
2023-05-09T04:20:32.771Z,537.00
2023-05-09T04:21:32.921Z,540.00
2023-05-09T04:22:32.833Z,537.00
2023-05-09T04:23:32.872Z,536.00
2023-05-09T04:24:32.890Z,538.00
2023-05-09T04:25:32.915Z,535.00
2023-05-09T04:26:33.183Z,542.00
2023-05-09T04:27:32.948Z,536.00
2023-05-09T04:28:32.991Z,541.00
2023-05-09T04:29:33.029Z,540.00
2023-05-09T04:30:33.149Z,536.00
2023-05-09T04:31:33.245Z,537.00
2023-05-09T04:32:33.181Z,540.00
2023-05-09T04:33:33.186Z,534.00
2023-05-09T04:34:33.213Z,539.00
2023-05-09T04:35:33.230Z,536.00
2023-05-09T04:36:33.283Z,533.00
2023-05-09T04:37:33.352Z,534.00
2023-05-09T04:38:33.290Z,531.00
2023-05-09T04:39:33.296Z,533.00
2023-05-09T04:40:33.343Z,533.00
2023-05-09T04:41:33.332Z,532.00
2023-05-09T04:42:33.389Z,533.00
2023-05-09T04:43:33.389Z,536.00
2023-05-09T04:44:33.414Z,530.00
2023-05-09T04:45:33.477Z,530.00
2023-05-09T04:46:33.510Z,531.00
2023-05-09T04:47:33.606Z,526.00
2023-05-09T04:48:33.546Z,530.00
2023-05-09T04:49:33.570Z,526.00
2023-05-09T04:50:33.590Z,528.00
2023-05-09T04:51:33.624Z,527.00
2023-05-09T04:52:33.636Z,526.00
2023-05-09T04:53:33.764Z,528.00
2023-05-09T04:54:33.704Z,527.00
2023-05-09T04:55:33.723Z,531.00
2023-05-09T04:56:33.786Z,521.00
2023-05-09T04:57:33.769Z,527.00
2023-05-09T04:58:33.804Z,526.00
2023-05-09T04:59:33.842Z,531.00
2023-05-09T05:00:40.851Z,524.00
2023-05-09T05:01:33.865Z,525.00
2023-05-09T05:02:33.873Z,526.00
2023-05-09T05:03:33.863Z,528.00
2023-05-09T05:04:33.856Z,528.00
2023-05-09T05:05:36.969Z,531.00
2023-05-09T05:06:33.793Z,525.00
2023-05-09T05:07:33.807Z,525.00
2023-05-09T05:08:33.814Z,527.00
2023-05-09T05:09:33.885Z,530.00
2023-05-09T05:10:33.787Z,532.00
2023-05-09T05:11:33.795Z,529.00
2023-05-09T05:12:33.778Z,535.00
2023-05-09T05:13:33.750Z,538.00
2023-05-09T05:14:33.729Z,530.00
2023-05-09T05:15:33.754Z,538.00
2023-05-09T05:16:33.808Z,533.00
2023-05-09T05:17:33.753Z,536.00
2023-05-09T05:18:33.725Z,532.00
2023-05-09T05:19:33.710Z,528.00
2023-05-09T05:20:33.675Z,527.00
2023-05-09T05:21:33.698Z,532.00
2023-05-09T05:22:33.679Z,533.00
2023-05-09T05:23:33.683Z,530.00
2023-05-09T05:24:33.701Z,542.00
2023-05-09T05:25:33.776Z,546.00
2023-05-09T05:26:33.687Z,538.00
2023-05-09T05:27:33.655Z,540.00
2023-05-09T05:28:33.663Z,541.00
2023-05-09T05:29:33.640Z,539.00
2023-05-09T05:30:34.628Z,538.00
2023-05-09T05:31:33.760Z,540.00
2023-05-09T05:32:33.656Z,542.00
2023-05-09T05:33:33.597Z,539.00
2023-05-09T05:34:33.633Z,545.00
2023-05-09T05:35:33.623Z,544.00
2023-05-09T05:36:33.723Z,555.00
2023-05-09T05:37:33.598Z,562.00
2023-05-09T05:38:33.596Z,576.00
2023-05-09T05:39:33.561Z,578.00
2023-05-09T05:40:33.578Z,609.00
2023-05-09T05:41:33.824Z,619.00
2023-05-09T05:42:33.551Z,631.00
2023-05-09T05:43:33.528Z,648.00
2023-05-09T05:44:33.566Z,675.00
2023-05-09T05:45:40.563Z,724.00
2023-05-09T05:46:33.553Z,728.00
2023-05-09T05:47:33.562Z,738.00
2023-05-09T05:48:33.525Z,772.00
2023-05-09T05:49:33.531Z,852.00
2023-05-09T05:50:33.501Z,975.00
2023-05-09T05:51:33.497Z,1011.00
2023-05-09T05:52:33.486Z,1067.00
2023-05-09T05:53:33.511Z,1059.00
2023-05-09T05:54:33.496Z,1059.00
2023-05-09T05:55:33.445Z,1084.00
2023-05-09T05:56:33.476Z,1086.00
2023-05-09T05:57:33.540Z,1065.00
2023-05-09T05:58:33.446Z,1034.00
2023-05-09T05:59:33.440Z,1094.00
2023-05-09T06:00:33.423Z,1053.00
2023-05-09T06:01:33.436Z,956.00
2023-05-09T06:02:33.640Z,929.00
2023-05-09T06:03:33.472Z,1018.00
2023-05-09T06:04:33.404Z,909.00
2023-05-09T06:05:33.396Z,913.00
2023-05-09T06:06:33.410Z,1038.00
2023-05-09T06:07:33.748Z,1114.00
2023-05-09T06:08:33.373Z,1147.00
2023-05-09T06:09:33.425Z,1138.00
2023-05-09T06:10:34.251Z,1168.00
2023-05-09T06:11:33.509Z,1167.00
2023-05-09T06:12:33.577Z,1150.00
2023-05-09T06:13:33.736Z,1030.00
2023-05-09T06:14:33.681Z,1031.00
2023-05-09T06:15:33.774Z,1132.00
2023-05-09T06:16:33.825Z,1191.00
2023-05-09T06:17:33.986Z,1166.00
2023-05-09T06:18:33.957Z,1196.00
2023-05-09T06:19:34.013Z,1185.00
2023-05-09T06:20:34.072Z,1156.00
2023-05-09T06:21:34.124Z,1174.00
2023-05-09T06:22:34.182Z,1172.00
2023-05-09T06:23:34.215Z,1156.00
2023-05-09T06:24:36.115Z,1093.00
2023-05-09T06:25:34.374Z,1122.00
2023-05-09T06:26:34.450Z,1126.00
2023-05-09T06:27:34.741Z,1139.00
2023-05-09T06:28:34.573Z,1167.00
2023-05-09T06:29:34.702Z,1212.00
2023-05-09T06:30:34.660Z,1236.00
2023-05-09T06:31:34.793Z,1247.00
2023-05-09T06:32:34.844Z,1271.00
2023-05-09T06:33:34.878Z,1331.00
2023-05-09T06:34:34.921Z,1356.00
2023-05-09T06:35:34.993Z,1397.00
2023-05-09T06:36:35.068Z,1441.00
2023-05-09T06:37:35.081Z,1512.00
2023-05-09T06:38:35.166Z,1548.00
2023-05-09T06:39:35.238Z,1581.00
2023-05-09T06:40:35.243Z,1595.00
2023-05-09T06:41:35.255Z,1608.00
2023-05-09T06:42:35.297Z,1619.00
2023-05-09T06:43:35.386Z,1603.00
2023-05-09T06:44:35.374Z,1584.00
2023-05-09T06:45:35.509Z,1486.00
2023-05-09T06:46:35.446Z,1485.00
2023-05-09T06:47:35.872Z,1501.00
2023-05-09T06:48:35.416Z,1498.00
2023-05-09T06:49:36.276Z,1530.00
2023-05-09T06:50:35.471Z,1546.00
2023-05-09T06:51:35.523Z,1554.00
2023-05-09T06:52:35.550Z,1549.00
2023-05-09T06:53:35.563Z,1553.00
2023-05-09T06:54:35.553Z,1566.00
2023-05-09T06:55:35.598Z,1546.00
2023-05-09T06:56:35.609Z,1557.00
2023-05-09T06:57:35.602Z,1547.00
2023-05-09T06:58:35.794Z,1471.00
2023-05-09T06:59:35.618Z,1492.00
2023-05-09T07:00:35.607Z,1511.00
2023-05-09T07:01:35.748Z,1504.00
2023-05-09T07:02:35.664Z,1497.00
2023-05-09T07:03:35.648Z,1495.00
2023-05-09T07:04:35.667Z,1490.00
2023-05-09T07:05:35.774Z,1505.00
2023-05-09T07:06:35.739Z,1498.00
2023-05-09T07:07:35.764Z,1494.00
2023-05-09T07:08:35.863Z,1492.00
2023-05-09T07:09:35.875Z,1503.00
2023-05-09T07:10:35.920Z,1505.00
2023-05-09T07:11:36.028Z,1508.00
2023-05-09T07:12:36.035Z,1496.00
2023-05-09T07:13:37.309Z,1517.00
2023-05-09T07:14:36.118Z,1525.00
2023-05-09T07:15:42.002Z,1525.00
2023-05-09T07:16:37.854Z,1527.00
2023-05-09T07:17:36.319Z,1535.00
2023-05-09T07:18:36.145Z,1548.00
2023-05-09T07:19:36.283Z,1566.00
2023-05-09T07:20:36.145Z,1583.00
2023-05-09T07:21:36.140Z,1584.00
2023-05-09T07:22:37.455Z,1603.00
2023-05-09T07:23:36.161Z,1600.00
2023-05-09T07:24:36.126Z,1547.00
2023-05-09T07:25:36.143Z,1545.00
2023-05-09T07:26:36.108Z,1548.00
2023-05-09T07:27:36.200Z,1541.00
2023-05-09T07:28:36.305Z,1554.00
2023-05-09T07:29:36.172Z,1402.00
2023-05-09T07:30:36.157Z,1464.00
2023-05-09T07:31:37.427Z,1472.00
2023-05-09T07:32:36.252Z,1343.00
2023-05-09T07:33:36.375Z,1282.00
2023-05-09T07:34:36.278Z,1022.00
2023-05-09T07:35:36.299Z,939.00
2023-05-09T07:37:36.378Z,938.00
2023-05-09T07:38:36.819Z,928.00
2023-05-09T07:39:36.405Z,883.00
2023-05-09T07:40:36.462Z,826.00
2023-05-09T07:41:36.401Z,900.00
2023-05-09T07:42:36.408Z,894.00
2023-05-09T07:43:36.772Z,922.00
2023-05-09T07:44:36.473Z,922.00
2023-05-09T07:45:36.570Z,844.00
2023-05-09T07:46:36.437Z,875.00
2023-05-09T07:47:36.481Z,920.00
2023-05-09T07:48:36.459Z,914.00
2023-05-09T07:49:36.534Z,1008.00
2023-05-09T07:50:36.466Z,760.00
2023-05-09T07:51:36.458Z,678.00
2023-05-09T07:52:36.457Z,650.00
2023-05-09T07:53:36.473Z,648.00
2023-05-09T07:54:36.490Z,604.00
2023-05-09T07:55:36.580Z,623.00
2023-05-09T07:56:36.594Z,649.00
2023-05-09T07:57:36.680Z,698.00
2023-05-09T07:58:36.748Z,732.00
2023-05-09T07:59:36.815Z,738.00
2023-05-09T08:00:36.825Z,715.00
2023-05-09T08:01:36.861Z,745.00
2023-05-09T08:02:37.059Z,715.00
2023-05-09T08:03:37.098Z,712.00
2023-05-09T08:04:37.176Z,665.00
2023-05-09T08:05:37.234Z,730.00
2023-05-09T08:06:37.205Z,678.00
2023-05-09T08:07:37.280Z,651.00
2023-05-09T08:08:38.898Z,617.00
2023-05-09T08:09:37.356Z,612.00
2023-05-09T08:10:37.466Z,620.00
2023-05-09T08:11:37.513Z,646.00
2023-05-09T08:12:37.561Z,701.00
2023-05-09T08:13:37.779Z,698.00
2023-05-09T08:14:37.667Z,717.00
2023-05-09T08:15:37.814Z,733.00
2023-05-09T08:16:37.816Z,762.00
2023-05-09T08:17:37.872Z,797.00
2023-05-09T08:18:38.329Z,815.00
2023-05-09T08:19:37.909Z,787.00
2023-05-09T08:20:37.929Z,823.00
2023-05-09T08:21:38.036Z,860.00
2023-05-09T08:22:37.939Z,885.00
2023-05-09T08:23:37.977Z,908.00
2023-05-09T08:24:38.316Z,930.00
2023-05-09T08:25:38.071Z,934.00
2023-05-09T08:26:38.181Z,951.00
2023-05-09T08:27:38.238Z,970.00
2023-05-09T08:28:38.238Z,1026.00
2023-05-09T08:29:38.352Z,1040.00
2023-05-09T08:30:38.315Z,1053.00
2023-05-09T08:31:38.366Z,1095.00
2023-05-09T08:32:38.380Z,1080.00
2023-05-09T08:33:40.504Z,1103.00
2023-05-09T08:34:38.830Z,1143.00
2023-05-09T08:35:38.336Z,1146.00
2023-05-09T08:36:38.362Z,1106.00
2023-05-09T08:37:38.723Z,1106.00
2023-05-09T08:38:38.335Z,1091.00
2023-05-09T08:39:38.332Z,1057.00
2023-05-09T08:40:38.328Z,1065.00
2023-05-09T08:41:38.295Z,1048.00
2023-05-09T08:42:38.319Z,1036.00
2023-05-09T08:43:38.312Z,1037.00
2023-05-09T08:44:38.297Z,1033.00
2023-05-09T08:45:38.303Z,1037.00
2023-05-09T08:46:38.297Z,1025.00
2023-05-09T08:47:38.318Z,1034.00
2023-05-09T08:48:38.286Z,1040.00
2023-05-09T08:49:38.307Z,1030.00
2023-05-09T08:50:38.367Z,1050.00
2023-05-09T08:51:38.329Z,1007.00
2023-05-09T08:52:38.251Z,871.00
2023-05-09T08:53:38.320Z,923.00
2023-05-09T08:54:38.219Z,1014.00
2023-05-09T08:55:38.198Z,1022.00
2023-05-09T08:56:38.232Z,1039.00
2023-05-09T08:57:38.209Z,1077.00
2023-05-09T08:58:38.213Z,1096.00
2023-05-09T08:59:38.359Z,1118.00
2023-05-09T09:00:38.151Z,1140.00
2023-05-09T09:01:38.184Z,1147.00
2023-05-09T09:02:38.180Z,1161.00
2023-05-09T09:03:38.147Z,1137.00
2023-05-09T09:04:38.221Z,1152.00
2023-05-09T09:05:41.307Z,1174.00
2023-05-09T09:06:38.150Z,1176.00
2023-05-09T09:07:38.135Z,1180.00
2023-05-09T09:08:38.141Z,1176.00
2023-05-09T09:09:38.229Z,1164.00
2023-05-09T09:10:38.127Z,1157.00
2023-05-09T09:11:38.099Z,1164.00
2023-05-09T09:12:38.075Z,1155.00
2023-05-09T09:13:38.141Z,1165.00
2023-05-09T09:14:38.084Z,1142.00
2023-05-09T09:15:38.072Z,1108.00
2023-05-09T09:16:38.106Z,1098.00
2023-05-09T09:17:38.092Z,1093.00
2023-05-09T09:18:39.597Z,1084.00
2023-05-09T09:19:38.332Z,1015.00
2023-05-09T09:20:38.105Z,1000.00
2023-05-09T09:21:38.121Z,973.00
2023-05-09T09:22:38.047Z,952.00
2023-05-09T09:23:38.061Z,874.00
2023-05-09T09:24:38.060Z,824.00
2023-05-09T09:25:38.808Z,833.00
2023-05-09T09:26:38.045Z,846.00
2023-05-09T09:27:38.155Z,866.00
2023-05-09T09:28:37.998Z,857.00
2023-05-09T09:29:38.396Z,845.00
2023-05-09T09:30:38.026Z,850.00
2023-05-09T09:31:38.034Z,855.00
2023-05-09T09:32:37.978Z,773.00
2023-05-09T09:33:37.974Z,805.00
2023-05-09T09:34:37.977Z,757.00
2023-05-09T09:35:38.341Z,748.00
2023-05-09T09:36:38.003Z,700.00
2023-05-09T09:37:37.978Z,649.00
2023-05-09T09:38:38.015Z,631.00
2023-05-09T09:39:38.021Z,613.00
2023-05-09T09:40:38.000Z,598.00
2023-05-09T09:41:38.141Z,582.00
2023-05-09T09:42:38.045Z,572.00
2023-05-09T09:43:38.054Z,423.00
2023-05-09T09:44:38.088Z,400.00
2023-05-09T09:45:38.162Z,406.00
2023-05-09T09:46:38.188Z,480.00
2023-05-09T09:47:38.187Z,548.00
2023-05-09T09:48:38.197Z,557.00
2023-05-09T09:49:38.231Z,596.00
2023-05-09T09:50:38.350Z,603.00
2023-05-09T09:51:38.272Z,604.00
2023-05-09T09:52:38.282Z,598.00
2023-05-09T09:53:38.354Z,577.00
2023-05-09T09:54:38.389Z,538.00
2023-05-09T09:55:38.402Z,538.00
2023-05-09T09:56:38.409Z,498.00
2023-05-09T09:57:38.579Z,516.00
2023-05-09T09:58:38.525Z,529.00
2023-05-09T09:59:38.595Z,519.00
2023-05-09T10:00:38.876Z,530.00
2023-05-09T10:01:38.635Z,541.00
2023-05-09T10:02:38.691Z,531.00
2023-05-09T10:03:38.713Z,525.00
2023-05-09T10:04:38.682Z,490.00
2023-05-09T10:05:38.865Z,500.00
2023-05-09T10:06:38.785Z,444.00
2023-05-09T10:07:38.763Z,410.00
2023-05-09T10:08:38.776Z,433.00
2023-05-09T10:09:38.803Z,474.00
2023-05-09T10:10:38.783Z,576.00
2023-05-09T10:11:38.755Z,608.00
2023-05-09T10:12:38.765Z,547.00
2023-05-09T10:13:38.837Z,564.00
2023-05-09T10:14:38.784Z,585.00
2023-05-09T10:15:52.325Z,610.00
2023-05-09T10:16:43.835Z,610.00
2023-05-09T10:17:38.954Z,610.00
2023-05-09T10:18:38.913Z,610.00
2023-05-09T10:19:38.806Z,591.00
2023-05-09T10:20:38.872Z,588.00
2023-05-09T10:21:38.772Z,585.00
2023-05-09T10:22:38.778Z,534.00
2023-05-09T10:23:38.733Z,522.00
2023-05-09T10:24:38.799Z,463.00
2023-05-09T10:25:38.763Z,449.00
2023-05-09T10:26:38.760Z,521.00
2023-05-09T10:27:38.735Z,569.00
2023-05-09T10:28:38.708Z,584.00
2023-05-09T10:29:38.852Z,574.00
2023-05-09T10:30:38.755Z,599.00
2023-05-09T10:31:38.779Z,607.00
2023-05-09T10:32:38.720Z,606.00
2023-05-09T10:33:38.662Z,611.00
2023-05-09T10:34:38.671Z,601.00
2023-05-09T10:35:38.709Z,565.00
2023-05-09T10:36:38.676Z,514.00
2023-05-09T10:37:38.649Z,400.00
2023-05-09T10:38:38.686Z,400.00
2023-05-09T10:39:38.631Z,452.00
2023-05-09T10:40:38.894Z,553.00
2023-05-09T10:41:38.654Z,745.00
2023-05-09T10:42:38.626Z,909.00
2023-05-09T10:43:38.631Z,890.00
2023-05-09T10:44:38.643Z,1002.00
2023-05-09T10:45:38.710Z,1047.00
2023-05-09T10:46:38.710Z,988.00
2023-05-09T10:47:38.684Z,1016.00
2023-05-09T10:48:38.721Z,1022.00
2023-05-09T10:49:38.587Z,990.00
2023-05-09T10:50:38.606Z,1034.00
2023-05-09T10:51:38.577Z,1184.00
2023-05-09T10:52:38.588Z,1344.00
2023-05-09T10:53:38.584Z,1405.00
2023-05-09T10:54:38.643Z,1535.00
2023-05-09T10:55:38.596Z,1215.00
2023-05-09T10:56:38.515Z,1118.00
2023-05-09T10:57:38.599Z,1262.00
2023-05-09T10:58:38.575Z,1138.00
2023-05-09T10:59:38.507Z,509.00
2023-05-09T11:00:38.888Z,440.00
2023-05-09T11:01:38.673Z,447.00
2023-05-09T11:02:38.511Z,525.00
2023-05-09T11:03:38.575Z,714.00
2023-05-09T11:04:38.505Z,717.00
2023-05-09T11:05:38.894Z,1007.00
2023-05-09T11:06:38.493Z,1179.00
2023-05-09T11:07:38.540Z,1057.00
2023-05-09T11:08:38.455Z,1291.00
2023-05-09T11:09:38.602Z,1435.00
2023-05-09T11:10:38.450Z,1295.00
2023-05-09T11:11:38.454Z,534.00
2023-05-09T11:12:38.457Z,400.00
2023-05-09T11:13:38.425Z,400.00
2023-05-09T11:14:38.415Z,400.00
2023-05-09T11:15:38.408Z,400.00
2023-05-09T11:16:38.932Z,400.00
2023-05-09T11:17:38.527Z,400.00
2023-05-09T11:18:38.447Z,400.00
2023-05-09T11:19:39.382Z,400.00
2023-05-09T11:20:38.388Z,400.00
2023-05-09T11:21:38.412Z,424.00
2023-05-09T11:22:38.413Z,578.00
2023-05-09T11:23:38.364Z,836.00
2023-05-09T11:24:38.328Z,754.00
2023-05-09T11:25:38.330Z,772.00
2023-05-09T11:26:38.355Z,905.00
2023-05-09T11:27:38.372Z,1203.00
2023-05-09T11:28:38.361Z,1294.00
2023-05-09T11:29:38.393Z,1574.00
2023-05-09T11:30:38.413Z,1862.00
2023-05-09T11:31:39.059Z,2082.00
2023-05-09T11:32:38.445Z,2237.00
2023-05-09T11:33:38.501Z,2410.00
2023-05-09T11:34:38.506Z,2445.00
2023-05-09T11:35:38.395Z,2446.00
2023-05-09T11:36:38.952Z,2505.00
2023-05-09T11:37:38.393Z,2526.00
2023-05-09T11:38:38.460Z,2538.00
2023-05-09T11:39:38.447Z,2563.00
2023-05-09T11:40:38.440Z,2609.00
2023-05-09T11:41:38.501Z,2631.00
2023-05-09T11:42:38.481Z,2663.00
2023-05-09T11:43:38.552Z,2715.00
2023-05-09T11:44:38.596Z,2742.00
2023-05-09T11:45:38.652Z,2764.00
2023-05-09T11:46:38.668Z,2762.00
2023-05-09T11:47:38.781Z,2797.00
2023-05-09T11:48:38.781Z,2809.00
2023-05-09T11:49:38.949Z,2840.00
2023-05-09T11:50:38.856Z,2861.00
2023-05-09T11:51:38.935Z,2866.00
2023-05-09T11:52:38.922Z,2867.00
2023-05-09T11:53:38.966Z,2873.00
2023-05-09T11:54:39.025Z,2911.00
2023-05-09T11:55:39.117Z,2929.00
2023-05-09T11:56:39.155Z,2934.00
2023-05-09T11:57:39.242Z,2955.00
2023-05-09T11:58:39.285Z,2969.00
2023-05-09T11:59:39.328Z,2998.00
2023-05-09T12:00:39.407Z,3029.00
2023-05-09T12:01:39.461Z,3032.00
2023-05-09T12:02:39.633Z,3052.00
2023-05-09T12:03:39.633Z,3057.00
2023-05-09T12:04:39.653Z,3070.00
2023-05-09T12:05:39.679Z,3073.00
2023-05-09T12:06:39.605Z,3076.00
2023-05-09T12:07:39.603Z,3096.00
2023-05-09T12:08:39.682Z,3122.00
2023-05-09T12:09:39.646Z,3152.00
2023-05-09T12:10:39.659Z,3168.00
2023-05-09T12:11:39.667Z,3221.00
2023-05-09T12:12:39.664Z,3253.00
2023-05-09T12:13:39.675Z,3294.00
2023-05-09T12:14:39.700Z,3340.00
2023-05-09T12:15:39.784Z,3356.00
2023-05-09T12:16:39.810Z,3385.00
2023-05-09T12:17:39.752Z,3408.00
2023-05-09T12:18:39.735Z,3414.00
2023-05-09T12:19:39.734Z,3452.00
2023-05-09T12:20:39.739Z,3449.00
2023-05-09T12:21:39.754Z,3438.00
2023-05-09T12:22:39.789Z,3470.00